Kafr el-Dauwar, Egypt
Current Conditions -  °F | °C
As of 2:00 AM on Saturday 20 Dec 2014 (Local Time) from HEAX Reporting Station
Scattered Clouds Scattered Clouds  
Wind Chill: 12°   Ceiling: Unl
Heat Index: 12°   Visibility: 6mi
Dew Point: 10°   Wind: 3mph
Humidity: 88%   Direction: 360°N
Pressure: 30.12"   Gusts: NA
Location:  31.13°N, 30.12°E
Report Text: HEAX 200000Z 36003KT 9999 SCT020 12/10 Q1020 NOSIG
Loading
Personal Weather Stations






























Interactive Weather Map New forecast layout! Learn more

10-Day Weather Forecast

Advertisements
Track Severe Weather on mobile